Time;durP1;ratioP1;P1;durP2;ratioP2;P2;SDS_P1;SDS_P2;PMS_P1;PMS_P2;Temp;Humidity;BMP_temperature;BMP_pressure;BME280_temperature;BME280_humidity;BME280_pressure;Samples;Min_cycle;Max_cycle;Signal;HPM_P1;HPM_P2
2022/10/25 00:01:35;;;;;;;1.67;0.88;;;10.20;99.90;;;9.66;100.00;97397.53;4993130;28;20033;-92
2022/10/25 00:04:04;;;;;;;4.05;0.88;;;10.20;99.90;;;9.41;100.00;97355.34;5006633;28;20037;-93
2022/10/25 00:06:30;;;;;;;1.88;0.88;;;10.10;99.90;;;9.48;100.00;97378.78;4990296;28;20041;-93
2022/10/25 00:08:56;;;;;;;2.13;0.90;;;10.10;99.90;;;9.31;100.00;97341.63;4991100;28;20021;-90
2022/10/25 00:11:26;;;;;;;2.42;1.20;;;10.20;99.90;;;9.45;100.00;97367.50;5005082;28;20048;-93
2022/10/25 00:13:54;;;;;;;4.78;1.20;;;10.20;99.90;;;9.25;100.00;97334.78;4978790;28;20404;-90
2022/10/25 00:16:46;;;;;;;4.25;0.80;;;10.20;99.90;;;9.38;100.00;97366.84;4997205;28;20034;-91
2022/10/25 00:19:13;;;;;;;2.28;0.90;;;10.10;99.90;;;9.07;100.00;97331.00;5000981;28;20588;-91
2022/10/25 00:21:39;;;;;;;2.95;1.13;;;10.10;99.90;;;9.15;100.00;97325.47;4980224;28;20512;-91
2022/10/25 00:24:05;;;;;;;1.23;0.80;;;10.10;99.90;;;9.60;100.00;97401.22;4998004;28;20869;-91
2022/10/25 00:26:31;;;;;;;1.85;0.98;;;10.10;99.90;;;9.53;100.00;97378.66;5012638;28;20356;-92
2022/10/25 00:28:57;;;;;;;2.60;1.10;;;10.10;99.90;;;9.41;100.00;97350.94;4991240;28;20052;-91
2022/10/25 00:31:23;;;;;;;4.43;0.82;;;10.10;99.90;;;8.96;100.00;97293.66;4987229;28;20033;-92
2022/10/25 00:33:50;;;;;;;1.88;0.90;;;10.10;99.90;;;9.39;100.00;97354.56;5003397;28;20026;-91
2022/10/25 00:36:22;;;;;;;5.03;1.23;;;10.10;99.90;;;9.42;100.00;97359.69;5005361;28;20394;-90
2022/10/25 00:38:48;;;;;;;1.70;1.00;;;10.10;99.90;;;9.64;100.00;97400.22;4988322;28;20087;-91
2022/10/25 00:41:23;;;;;;;4.03;1.20;;;10.20;99.90;;;9.68;100.00;97411.50;4986300;28;20489;-91
2022/10/25 00:43:53;;;;;;;2.33;1.10;;;10.20;99.90;;;9.44;100.00;97360.50;4990323;28;20036;-89
2022/10/25 00:46:19;;;;;;;7.10;1.30;;;10.20;99.90;;;9.70;100.00;97392.09;5006978;28;20045;-90
2022/10/25 00:49:17;;;;;;;1.55;1.00;;;10.20;99.90;;;9.70;100.00;97402.63;5005587;28;20092;-91
2022/10/25 00:51:56;;;;;;;4.72;1.30;;;10.20;99.90;;;9.61;100.00;97384.50;5008280;28;20035;-91
2022/10/25 00:54:28;;;;;;;1.80;1.10;;;10.20;99.90;;;9.48;100.00;97372.69;5006232;28;20029;-91
2022/10/25 00:56:58;;;;;;;4.43;1.20;;;10.20;99.90;;;9.19;100.00;97348.16;5008352;28;20432;-90
2022/10/25 00:59:26;;;;;;;2.47;1.20;;;10.20;99.90;;;9.02;100.00;97287.34;5004245;28;20025;-91
2022/10/25 01:01:54;;;;;;;4.05;1.25;;;10.20;99.90;;;9.51;100.00;97378.69;4989833;28;20316;-91
2022/10/25 01:04:25;;;;;;;2.28;0.93;;;10.20;99.90;;;9.72;100.00;97399.94;4986283;28;20025;-91
2022/10/25 01:06:52;;;;;;;2.70;1.50;;;10.20;99.90;;;9.32;100.00;97346.00;4994160;28;20039;-90
2022/10/25 01:09:26;;;;;;;3.50;1.60;;;10.20;99.90;;;9.39;100.00;97342.25;5005371;28;20083;-91
2022/10/25 01:11:52;;;;;;;1.63;1.20;;;10.20;99.90;;;9.19;100.00;97327.13;4993805;28;20678;-90
2022/10/25 01:14:19;;;;;;;3.65;1.30;;;10.20;99.90;;;9.67;100.00;97404.50;4997202;28;20021;-91
2022/10/25 01:17:23;;;;;;;3.45;1.30;;;10.10;99.90;;;9.53;100.00;97386.56;4988622;28;20041;-90
2022/10/25 01:20:43;;;;;;;3.20;1.25;;;10.20;99.90;;;9.33;100.00;97342.44;4995697;28;20029;-91
2022/10/25 01:23:52;;;;;;;2.88;1.27;;;10.20;99.90;;;9.67;100.00;97394.84;4983056;28;20037;-90
2022/10/25 01:26:33;;;;;;;2.28;0.98;;;10.10;99.90;;;9.69;100.00;97392.13;5004489;28;20893;-90
2022/10/25 01:29:54;;;;;;;6.03;1.58;;;10.10;99.90;;;9.48;100.00;97356.88;5009622;28;20042;-91
2022/10/25 01:32:56;;;;;;;1.83;1.40;;;10.20;99.90;;;9.61;100.00;97381.03;4986442;28;20049;-90
2022/10/25 01:35:45;;;;;;;5.70;1.50;;;10.10;99.90;;;9.61;100.00;97387.13;4989755;28;20443;-91
2022/10/25 01:38:24;;;;;;;2.63;1.40;;;10.10;99.90;;;9.51;100.00;97372.56;5004384;28;20112;-90
2022/10/25 01:41:22;;;;;;;2.60;1.30;;;10.10;99.90;;;9.59;100.00;97385.47;4990788;28;20394;-91
2022/10/25 01:44:07;;;;;;;2.13;1.33;;;10.10;99.90;;;8.88;100.00;97261.47;4997557;28;20427;-90
2022/10/25 01:46:45;;;;;;;5.72;1.42;;;10.10;99.90;;;9.52;100.00;97377.78;4984187;28;20039;-91
2022/10/25 01:49:21;;;;;;;3.53;1.40;;;10.10;99.90;;;9.45;100.00;97378.88;4989517;28;20497;-92
2022/10/25 01:51:47;;;;;;;1.92;1.40;;;10.10;99.90;;;9.49;100.00;97385.78;5001861;28;20563;-92
2022/10/25 01:54:26;;;;;;;2.70;1.42;;;10.10;99.90;;;9.58;100.00;97394.28;5000003;28;20091;-91
2022/10/25 01:57:12;;;;;;;4.00;1.38;;;10.10;99.90;;;9.59;100.00;97396.88;4987106;28;20021;-91
2022/10/25 01:59:52;;;;;;;2.42;1.23;;;10.10;99.90;;;9.48;100.00;97386.69;5005336;28;20037;-91
2022/10/25 02:02:33;;;;;;;3.38;1.40;;;10.10;99.90;;;9.58;100.00;97402.19;5003577;28;20088;-91
2022/10/25 02:05:03;;;;;;;2.63;1.40;;;10.10;99.90;;;9.56;100.00;97402.22;4999566;28;20504;-91
2022/10/25 02:07:36;;;;;;;5.22;1.35;;;10.00;99.90;;;9.36;100.00;97384.44;4991992;28;20507;-90
2022/10/25 02:10:30;;;;;;;3.30;1.30;;;10.00;99.90;;;9.24;100.00;97361.16;5005314;28;20498;-91
2022/10/25 02:13:26;;;;;;;2.35;1.35;;;10.00;99.90;;;9.14;100.00;97358.81;5004781;28;20152;-91
2022/10/25 02:16:10;;;;;;;6.47;1.67;;;9.90;99.90;;;9.44;100.00;97406.13;4988666;28;20108;-91
2022/10/25 02:18:41;;;;;;;2.38;1.50;;;9.90;99.90;;;9.11;100.00;97352.81;5003479;28;20049;-90
2022/10/25 02:21:11;;;;;;;4.07;1.48;;;9.90;99.90;;;9.34;100.00;97379.22;4983125;28;20071;-90
2022/10/25 02:23:38;;;;;;;4.80;1.60;;;9.90;99.90;;;9.30;100.00;97374.13;4988963;28;20560;-91
2022/10/25 02:26:07;;;;;;;2.58;1.20;;;10.00;99.90;;;9.47;100.00;97405.16;4986474;28;23457;-90
2022/10/25 02:28:39;;;;;;;4.68;1.60;;;10.00;99.90;;;9.36;100.00;97390.56;4986168;28;20041;-90
2022/10/25 02:31:09;;;;;;;2.75;1.48;;;9.90;99.90;;;9.21;100.00;97366.53;5004266;28;20030;-91
2022/10/25 02:33:36;;;;;;;2.72;1.45;;;10.00;99.90;;;9.18;100.00;97367.47;4990005;28;20028;-90
2022/10/25 02:36:22;;;;;;;5.57;1.25;;;10.00;99.90;;;9.47;100.00;97400.75;5005039;28;20025;-91
2022/10/25 02:38:51;;;;;;;4.18;1.45;;;9.90;99.90;;;9.21;100.00;97348.97;5035854;28;20045;-91
2022/10/25 02:41:19;;;;;;;2.55;1.48;;;10.00;99.90;;;9.29;100.00;97340.81;5001721;28;20557;-90
2022/10/25 02:43:45;;;;;;;2.03;1.30;;;10.10;99.90;;;8.84;100.00;97273.00;5006315;28;20123;-91
2022/10/25 02:46:24;;;;;;;4.03;1.50;;;10.10;99.90;;;9.53;100.00;97394.44;5008533;28;20025;-91
2022/10/25 02:48:50;;;;;;;2.38;1.40;;;10.00;99.90;;;9.29;100.00;97349.56;5000848;28;20231;-90
2022/10/25 02:51:19;;;;;;;6.72;1.67;;;10.00;99.90;;;9.44;100.00;97371.03;5003814;28;20037;-90
2022/10/25 02:53:48;;;;;;;3.33;1.30;;;10.00;99.90;;;9.53;100.00;97391.81;5000335;28;20806;-90
2022/10/25 02:56:19;;;;;;;5.55;1.55;;;10.00;99.90;;;9.43;100.00;97374.59;4984693;28;20109;-90
2022/10/25 02:58:46;;;;;;;4.45;1.70;;;10.00;99.90;;;9.18;100.00;97335.91;4988782;28;21040;-90
2022/10/25 03:01:13;;;;;;;4.90;1.70;;;10.00;99.90;;;9.31;100.00;97360.06;5007544;28;20034;-90
2022/10/25 03:03:39;;;;;;;3.28;1.63;;;9.90;99.90;;;9.28;100.00;97365.44;5007937;28;20040;-90
2022/10/25 03:06:06;;;;;;;4.25;1.38;;;10.00;99.90;;;9.29;100.00;97368.00;5009742;28;20021;-90
2022/10/25 03:08:32;;;;;;;4.95;1.33;;;9.90;99.90;;;9.23;100.00;97355.03;4990946;28;20087;-90
2022/10/25 03:10:59;;;;;;;3.88;1.23;;;9.90;99.90;;;9.15;100.00;97338.63;4993953;28;20026;-91
2022/10/25 03:13:25;;;;;;;4.07;1.27;;;9.90;99.90;;;9.08;100.00;97331.84;4993808;28;20029;-90
2022/10/25 03:15:50;;;;;;;6.40;1.38;;;10.00;99.90;;;9.06;100.00;97318.75;5006262;28;20044;-90
2022/10/25 03:18:16;;;;;;;5.38;1.45;;;9.90;99.90;;;9.14;100.00;97344.81;5004846;28;20041;-91
2022/10/25 03:20:43;;;;;;;2.58;1.55;;;9.90;99.90;;;9.01;100.00;97330.31;5008560;28;20095;-90
2022/10/25 03:23:10;;;;;;;2.70;1.20;;;9.90;99.90;;;9.35;100.00;97396.75;4997214;28;20083;-90
2022/10/25 03:25:36;;;;;;;4.38;1.50;;;9.90;99.90;;;9.17;100.00;97368.41;5007299;28;20398;-90
2022/10/25 03:28:02;;;;;;;4.97;1.70;;;9.90;99.90;;;8.84;100.00;97328.22;4991431;28;20040;-90
2022/10/25 03:30:29;;;;;;;3.55;1.90;;;9.80;99.90;;;9.15;100.00;97381.59;5002093;28;20558;-90
2022/10/25 03:32:56;;;;;;;3.45;1.30;;;9.80;99.90;;;9.27;100.00;97400.53;5007044;28;20040;-90
2022/10/25 03:35:22;;;;;;;2.80;1.25;;;9.80;99.90;;;9.26;100.00;97404.06;4989067;28;20057;-90
2022/10/25 03:37:49;;;;;;;3.00;1.27;;;9.80;99.90;;;8.89;100.00;97348.22;5009474;28;20034;-90
2022/10/25 03:40:15;;;;;;;4.07;1.40;;;9.80;99.90;;;9.06;100.00;97371.38;5011272;28;20041;-92
2022/10/25 03:42:41;;;;;;;2.35;1.27;;;9.80;99.90;;;9.24;100.00;97405.88;5038486;28;20038;-90
2022/10/25 03:45:07;;;;;;;4.80;1.50;;;9.80;99.90;;;9.25;100.00;97405.84;5022304;28;20026;-91
2022/10/25 03:47:33;;;;;;;2.75;1.48;;;9.80;99.90;;;8.82;100.00;97341.41;5022507;28;20045;-92
2022/10/25 03:49:59;;;;;;;3.75;1.60;;;9.80;99.90;;;9.16;100.00;97393.00;5038051;28;20048;-90
2022/10/25 03:52:24;;;;;;;2.35;1.50;;;9.70;99.90;;;9.04;100.00;97374.94;5035543;28;20030;-91
2022/10/25 03:54:50;;;;;;;4.10;1.80;;;9.80;99.90;;;9.25;100.00;97413.75;5029204;28;20037;-90
2022/10/25 03:57:16;;;;;;;4.47;1.73;;;9.70;99.90;;;9.10;100.00;97394.03;5034963;28;20131;-93
2022/10/25 03:59:43;;;;;;;6.72;1.70;;;9.70;99.90;;;9.20;100.00;97405.13;5017464;28;20061;-91
2022/10/25 04:02:13;;;;;;;3.90;1.80;;;9.70;99.90;;;9.10;100.00;97395.81;5009031;28;20106;-91
2022/10/25 04:04:39;;;;;;;4.43;1.80;;;9.80;99.90;;;8.79;100.00;97347.66;4987001;28;20033;-91
2022/10/25 04:07:05;;;;;;;6.40;2.05;;;9.80;99.90;;;9.01;100.00;97370.66;4992231;28;20405;-91
2022/10/25 04:09:30;;;;;;;4.30;1.90;;;9.80;99.90;;;9.19;100.00;97413.94;4995697;28;20111;-91
2022/10/25 04:11:56;;;;;;;4.35;1.80;;;9.70;99.90;;;9.21;100.00;97411.28;4980806;28;20025;-90
2022/10/25 04:14:22;;;;;;;5.82;1.75;;;9.70;99.90;;;9.10;100.00;97406.34;4991236;28;20061;-91
2022/10/25 04:16:48;;;;;;;4.55;2.10;;;9.70;99.90;;;9.21;100.00;97409.50;5006059;28;20032;-91
2022/10/25 04:19:14;;;;;;;3.17;1.60;;;9.70;99.90;;;9.14;100.00;97407.97;5011037;28;20033;-91
2022/10/25 04:21:40;;;;;;;4.25;1.75;;;9.70;99.90;;;9.08;100.00;97392.34;4988927;28;20065;-91
2022/10/25 04:24:06;;;;;;;3.40;2.00;;;9.70;99.90;;;9.22;100.00;97420.88;4993839;28;20022;-91
2022/10/25 04:26:35;;;;;;;4.10;1.90;;;9.70;99.90;;;9.13;100.00;97398.34;4993954;28;20061;-92
2022/10/25 04:29:03;;;;;;;4.60;1.83;;;9.70;99.90;;;9.01;100.00;97385.56;5003509;28;20040;-91
2022/10/25 04:31:29;;;;;;;3.80;1.73;;;9.70;99.90;;;9.15;100.00;97417.56;4988970;28;20634;-90
2022/10/25 04:33:55;;;;;;;6.22;2.03;;;9.70;99.90;;;9.20;100.00;97415.66;4992003;28;20034;-92
2022/10/25 04:36:22;;;;;;;3.90;1.83;;;9.70;99.90;;;9.21;100.00;97422.66;4991924;28;20041;-91
2022/10/25 04:38:50;;;;;;;4.30;1.80;;;9.70;99.90;;;9.21;100.00;97419.16;5006881;28;20140;-90
2022/10/25 04:41:16;;;;;;;3.20;1.70;;;9.70;99.90;;;9.20;100.00;97418.28;5002697;28;20056;-90
2022/10/25 04:43:42;;;;;;;6.20;1.90;;;9.70;99.90;;;8.97;100.00;97382.16;4989655;28;20108;-90
2022/10/25 04:46:08;;;;;;;3.38;1.80;;;9.70;99.90;;;9.15;100.00;97417.56;5006332;28;20484;-90
2022/10/25 04:48:36;;;;;;;2.55;1.67;;;9.70;99.90;;;8.86;100.00;97363.22;4997383;28;20622;-91
2022/10/25 04:51:03;;;;;;;5.78;1.85;;;9.70;99.90;;;9.18;100.00;97417.47;5005960;28;20038;-90
2022/10/25 04:53:29;;;;;;;5.03;1.55;;;9.70;99.90;;;8.79;100.00;97354.66;4973926;28;20048;-90
2022/10/25 04:55:58;;;;;;;2.78;1.70;;;9.70;99.90;;;9.16;100.00;97419.28;4983646;28;20389;-90
2022/10/25 04:58:25;;;;;;;3.20;1.90;;;9.70;99.90;;;9.11;100.00;97398.38;5004776;28;20037;-91
2022/10/25 05:00:52;;;;;;;6.25;2.15;;;9.70;99.90;;;9.17;100.00;97389.47;5009464;28;20091;-89
2022/10/25 05:03:18;;;;;;;6.30;1.60;;;9.80;99.90;;;9.01;100.00;97373.28;4986261;28;20290;-90
2022/10/25 05:05:44;;;;;;;4.57;1.73;;;9.80;99.90;;;9.32;100.00;97425.81;5008417;28;20057;-90
2022/10/25 05:08:10;;;;;;;4.55;1.70;;;9.80;99.90;;;9.22;100.00;97407.72;5004325;28;20116;-90
2022/10/25 05:10:35;;;;;;;2.90;1.75;;;9.80;99.90;;;9.17;100.00;97406.09;5001236;28;23436;-90
2022/10/25 05:13:01;;;;;;;7.40;1.95;;;9.80;99.90;;;9.29;100.00;97436.41;5000702;28;20173;-91
2022/10/25 05:15:30;;;;;;;4.85;1.85;;;9.80;99.90;;;9.23;100.00;97439.25;4997819;28;20040;-90
2022/10/25 05:17:57;;;;;;;4.63;1.60;;;9.80;99.90;;;9.24;100.00;97434.84;5004116;28;20029;-91
2022/10/25 05:20:23;;;;;;;5.18;1.73;;;9.70;99.90;;;9.23;100.00;97438.41;5005731;28;20174;-90
2022/10/25 05:22:49;;;;;;;2.78;1.55;;;9.70;99.90;;;8.81;100.00;97378.28;5009491;28;20033;-90
2022/10/25 05:25:15;;;;;;;2.67;1.67;;;9.80;99.90;;;9.11;100.00;97431.72;4985363;28;20091;-90
2022/10/25 05:27:41;;;;;;;2.83;1.50;;;9.70;99.90;;;8.51;100.00;97347.63;4987267;28;20144;-91
2022/10/25 05:30:07;;;;;;;4.13;1.58;;;9.70;99.90;;;9.02;100.00;97426.75;5000940;28;20070;-90
2022/10/25 05:32:33;;;;;;;4.28;1.67;;;9.70;99.90;;;9.04;100.00;97443.34;5001859;28;20029;-90
2022/10/25 05:34:59;;;;;;;5.43;1.60;;;9.60;99.90;;;9.04;100.00;97432.81;4991099;28;20025;-91
2022/10/25 05:37:25;;;;;;;5.13;1.42;;;9.60;99.90;;;8.92;100.00;97421.78;5009769;28;20120;-90
2022/10/25 05:39:50;;;;;;;4.32;1.95;;;9.60;99.90;;;8.77;100.00;97391.53;4992776;28;20034;-91
2022/10/25 05:42:16;;;;;;;5.50;1.58;;;9.60;99.90;;;8.51;100.00;97368.63;5009111;28;20067;-89
2022/10/25 05:44:42;;;;;;;6.28;1.98;;;9.50;99.90;;;8.85;100.00;97400.97;5005215;28;20127;-91
2022/10/25 05:47:08;;;;;;;3.72;1.67;;;9.60;99.90;;;8.92;100.00;97413.88;5010538;28;20061;-90
2022/10/25 05:49:38;;;;;;;3.60;1.75;;;9.60;99.90;;;8.97;100.00;97424.25;5008686;28;20424;-90
2022/10/25 05:52:08;;;;;;;4.45;1.80;;;9.60;99.90;;;9.12;100.00;97449.25;5007288;28;20619;-90
2022/10/25 05:54:34;;;;;;;6.13;1.90;;;9.60;99.90;;;8.74;100.00;97381.09;5008421;28;20056;-90
2022/10/25 05:56:59;;;;;;;5.30;2.10;;;9.70;99.90;;;8.74;100.00;97385.47;4989838;28;20474;-90
2022/10/25 05:59:25;;;;;;;6.00;1.90;;;9.70;99.90;;;9.08;100.00;97439.69;4997205;28;20523;-91
2022/10/25 06:01:51;;;;;;;4.55;2.13;;;9.60;99.90;;;9.18;100.00;97451.69;4999738;28;20033;-92
2022/10/25 06:04:17;;;;;;;5.00;1.85;;;9.70;99.90;;;9.17;100.00;97453.47;5005244;28;20057;-91
2022/10/25 06:06:45;;;;;;;5.53;2.05;;;9.70;99.90;;;9.16;100.00;97448.25;5005609;28;20694;-92
2022/10/25 06:09:12;;;;;;;6.63;1.98;;;9.70;99.90;;;9.10;100.00;97443.19;5006319;28;20103;-91
2022/10/25 06:11:38;;;;;;;5.50;1.73;;;9.70;99.90;;;9.09;100.00;97442.28;4989447;28;20319;-92
2022/10/25 06:14:05;;;;;;;5.05;2.10;;;9.70;99.90;;;9.03;100.00;97417.97;4991366;28;20026;-91
2022/10/25 06:16:31;;;;;;;4.70;2.10;;;9.80;99.90;;;9.00;100.00;97410.16;5006911;28;20037;-90
2022/10/25 06:18:57;;;;;;;3.72;1.88;;;9.80;99.90;;;9.30;100.00;97453.94;5007545;28;20049;-91
2022/10/25 06:21:26;;;;;;;5.25;2.55;;;9.80;99.90;;;9.31;100.00;97460.94;5001137;28;20393;-91
2022/10/25 06:23:52;;;;;;;3.75;1.70;;;9.90;99.90;;;9.32;100.00;97465.28;5001140;28;20029;-91
2022/10/25 06:26:22;;;;;;;3.55;1.73;;;9.90;99.90;;;9.14;100.00;97439.53;5004617;28;20033;-91
2022/10/25 06:28:52;;;;;;;4.47;1.95;;;9.90;99.90;;;9.36;100.00;97474.78;4993795;28;20129;-92
2022/10/25 06:31:18;;;;;;;6.10;2.05;;;9.90;99.90;;;9.13;100.00;97448.31;4993169;28;20033;-91
2022/10/25 06:33:45;;;;;;;3.70;1.80;;;9.90;99.90;;;9.15;100.00;97451.75;4991635;28;20485;-92
2022/10/25 06:36:17;;;;;;;5.88;1.75;;;9.90;99.90;;;9.25;100.00;97471.63;4995675;28;20156;-92
2022/10/25 06:38:44;;;;;;;5.10;1.73;;;9.90;99.90;;;9.43;100.00;97511.47;4994355;28;20033;-91
2022/10/25 06:41:16;;;;;;;3.85;2.33;;;9.90;99.90;;;8.80;100.00;97390.56;5011381;28;20030;-92
2022/10/25 06:43:42;;;;;;;;;;;10.00;99.90;;;8.82;100.00;97388.75;5011515;28;20041;-92
2022/10/25 06:46:13;;;;;;;4.85;2.03;;;10.00;99.90;;;9.07;100.00;97438.84;5010017;28;19916;-91
2022/10/25 06:48:39;;;;;;;7.25;1.80;;;10.00;99.90;;;9.21;100.00;97446.34;4989880;28;20069;-91
2022/10/25 06:51:10;;;;;;;4.20;1.92;;;10.10;99.90;;;9.22;100.00;97434.03;5005855;28;20144;-91
2022/10/25 06:53:39;;;;;;;5.57;1.92;;;10.10;99.90;;;9.64;100.00;97505.53;5003093;28;21031;-92
2022/10/25 06:56:09;;;;;;;4.22;1.83;;;10.20;99.90;;;9.40;100.00;97467.66;5008075;28;20025;-91
2022/10/25 06:58:36;;;;;;;3.38;1.85;;;10.20;99.90;;;9.08;100.00;97403.75;4991707;28;20117;-91
2022/10/25 07:01:12;;;;;;;6.38;2.00;;;10.30;99.90;;;9.36;100.00;97439.72;4995791;28;20065;-92
2022/10/25 07:03:39;;;;;;;3.42;1.77;;;10.40;99.90;;;9.56;100.00;97460.16;5011789;28;20061;-91
2022/10/25 07:06:18;;;;;;;2.45;1.70;;;10.50;99.90;;;10.03;100.00;97526.25;5000074;28;20079;-91
2022/10/25 07:08:48;;;;;;;3.22;2.10;;;10.60;99.90;;;9.96;100.00;97505.41;4997353;28;20022;-92
2022/10/25 07:11:17;;;;;;;3.40;1.80;;;10.70;99.90;;;9.66;100.00;97445.78;4997735;28;20030;-91
2022/10/25 07:13:46;;;;;;;3.25;1.75;;;10.80;99.90;;;9.99;100.00;97494.78;4998765;28;20117;-92
2022/10/25 07:16:17;;;;;;;2.80;1.73;;;10.80;99.90;;;9.89;100.00;97481.06;5028260;28;20091;-92
2022/10/25 07:18:43;;;;;;;5.57;1.88;;;10.80;99.90;;;9.96;100.00;97474.69;4999827;28;20580;-91
2022/10/25 07:21:19;;;;;;;3.25;1.77;;;10.80;99.90;;;10.04;100.00;97501.59;4997377;28;20129;-91
2022/10/25 07:23:46;;;;;;;7.38;1.80;;;10.90;99.90;;;10.16;100.00;97517.91;5013238;28;20060;-92
2022/10/25 07:26:22;;;;;;;2.85;1.63;;;10.90;99.90;;;10.39;100.00;97539.16;5002768;28;20116;-91
2022/10/25 07:28:51;;;;;;;3.92;1.65;;;10.90;99.90;;;9.99;100.00;97466.66;5017312;28;20025;-92
2022/10/25 07:31:20;;;;;;;5.72;1.92;;;11.00;99.90;;;10.13;100.00;97488.13;4998805;28;20025;-91
2022/10/25 07:33:51;;;;;;;4.20;2.08;;;11.00;99.90;;;10.16;100.00;97492.44;5014858;28;20048;-92
2022/10/25 07:36:17;;;;;;;5.25;2.10;;;11.10;99.90;;;10.52;100.00;97544.84;5002939;28;20409;-91
2022/10/25 07:38:43;;;;;;;4.55;1.77;;;11.10;99.90;;;10.56;100.00;97545.63;4998067;28;20633;-93
2022/10/25 07:41:09;;;;;;;6.03;1.67;;;11.10;99.90;;;10.57;100.00;97550.84;5013260;28;20379;-91
2022/10/25 07:43:35;;;;;;;7.20;2.20;;;11.10;99.90;;;10.03;100.00;97454.22;5014022;28;20030;-91
2022/10/25 07:46:01;;;;;;;2.38;1.40;;;11.10;99.90;;;10.25;100.00;97481.59;5013121;28;20231;-92
2022/10/25 07:48:27;;;;;;;3.55;1.50;;;11.20;99.90;;;10.11;100.00;97447.78;5014078;28;20030;-92
2022/10/25 07:50:53;;;;;;;5.68;1.70;;;11.20;99.90;;;10.47;100.00;97505.44;4995692;28;20041;-91
2022/10/25 07:53:19;;;;;;;5.00;1.60;;;11.30;99.90;;;10.68;100.00;97539.91;5021595;28;20022;-92
2022/10/25 07:55:53;;;;;;;3.35;1.60;;;11.30;99.90;;;10.82;100.00;97561.41;5014027;28;20053;-92
2022/10/25 07:58:19;;;;;;;6.50;1.75;;;11.40;99.90;;;10.89;100.00;97564.66;4997985;28;20030;-91
2022/10/25 08:00:45;;;;;;;3.95;1.45;;;11.40;99.90;;;10.94;100.00;97557.44;4997128;28;20032;-91
2022/10/25 08:03:13;;;;;;;3.28;1.55;;;11.50;99.90;;;11.06;100.00;97548.22;5013203;28;20494;-92
2022/10/25 08:05:39;;;;;;;2.42;1.58;;;11.50;99.90;;;11.14;100.00;97555.88;4999111;28;20482;-93
2022/10/25 08:08:05;;;;;;;2.60;1.45;;;11.60;99.90;;;11.04;100.00;97523.69;4995493;28;20034;-93
2022/10/25 08:10:31;;;;;;;3.95;1.60;;;11.70;99.90;;;10.99;100.00;97513.28;4997118;28;20116;-92
2022/10/25 08:12:58;;;;;;;4.68;2.00;;;11.70;99.90;;;11.04;100.00;97518.41;4998816;28;20040;-92
2022/10/25 08:15:23;;;;;;;3.95;1.65;;;11.80;99.90;;;11.28;100.00;97548.28;5008158;28;20282;-92
2022/10/25 08:18:00;;;;;;;4.35;1.90;;;11.80;99.90;;;11.28;100.00;97541.22;5018607;28;20025;-92
2022/10/25 08:20:27;;;;;;;4.57;1.77;;;11.90;99.90;;;11.42;100.00;97561.84;5022379;28;20144;-93
2022/10/25 08:22:57;;;;;;;4.03;1.50;;;11.90;99.90;;;11.08;100.00;97488.31;5007660;28;20033;-92
2022/10/25 08:25:24;;;;;;;3.50;1.55;;;12.00;99.90;;;11.43;100.00;97536.28;5004005;28;20037;-93
2022/10/25 08:27:49;;;;;;;3.72;1.40;;;12.00;99.90;;;11.56;100.00;97547.25;5006376;28;20025;-92
2022/10/25 08:30:15;;;;;;;2.88;1.50;;;12.10;99.90;;;11.29;100.00;97499.88;5019523;28;20038;-91
2022/10/25 08:32:41;;;;;;;3.50;1.83;;;12.10;99.90;;;11.35;100.00;97504.03;5017467;28;21850;-91
2022/10/25 08:35:07;;;;;;;4.72;1.73;;;12.10;99.90;;;11.55;100.00;97541.09;4997720;28;20369;-91
2022/10/25 08:37:33;;;;;;;4.75;1.48;;;12.20;99.90;;;11.44;100.00;97511.59;5015339;28;20074;-92
2022/10/25 08:39:59;;;;;;;4.28;1.38;;;12.20;99.90;;;11.57;100.00;97527.84;5002158;28;20124;-91
2022/10/25 08:43:08;;;;;;;4.13;1.50;;;12.20;99.90;;;11.83;100.00;97553.25;5002944;28;20132;-92
2022/10/25 08:45:40;;;;;;;3.33;2.00;;;12.30;99.90;;;11.67;100.00;97510.72;4995520;28;20040;-92
2022/10/25 08:48:14;;;;;;;5.10;2.03;;;12.40;99.90;;;11.51;100.00;97478.75;4995945;28;22529;-92
2022/10/25 08:50:49;;;;;;;4.70;1.52;;;12.40;99.90;;;11.82;100.00;97519.81;4998389;28;20040;-92
2022/10/25 08:53:32;;;;;;;5.32;1.80;;;12.50;99.90;;;11.85;100.00;97519.69;4997491;28;20056;-92
2022/10/25 08:55:58;;;;;;;;;;;12.60;99.90;;;12.09;100.00;97546.94;4997285;28;20962;-91
2022/10/25 08:58:32;;;;;;;3.60;1.55;;;12.60;99.90;;;11.89;100.00;97508.06;5003416;28;19913;-91
2022/10/25 09:01:05;;;;;;;4.18;1.92;;;12.70;99.90;;;12.36;100.00;97560.81;4996650;28;20034;-92
2022/10/25 09:03:31;;;;;;;3.78;1.35;;;12.80;99.90;;;11.99;100.00;97487.44;4994777;28;20032;-91
2022/10/25 09:06:05;;;;;;;4.07;1.48;;;12.90;99.90;;;12.52;100.00;97557.53;4995578;28;20413;-92
2022/10/25 09:08:58;;;;;;;2.58;1.20;;;13.00;99.90;;;12.50;100.00;97541.72;5013361;28;20038;-91
2022/10/25 09:11:30;;;;;;;4.25;1.30;;;13.10;99.90;;;12.70;100.00;97564.66;5029799;23;20372;-46
2022/10/25 09:14:17;;;;;;;4.10;1.45;;;13.20;99.90;;;12.81;100.00;97566.84;5034091;28;20037;-43
2022/10/25 09:16:49;;;;;;;4.10;1.55;;;13.30;99.90;;;12.88;100.00;97573.59;5032113;28;20044;-44
2022/10/25 09:19:20;;;;;;;;;;;13.40;99.90;;;12.88;100.00;97575.38;5034729;28;20087;-46
2022/10/25 09:21:59;;;;;;;5.78;1.10;;;13.40;99.90;;;12.97;100.00;97569.69;5026953;28;19917;-47
2022/10/25 09:24:45;;;;;;;3.50;1.02;;;13.50;99.90;;;13.03;100.00;97572.09;4999527;28;20091;-44
2022/10/25 09:27:18;;;;;;;7.57;1.20;;;13.50;99.90;;;13.08;100.00;97572.75;4999979;28;21021;-45
2022/10/25 09:29:54;;;;;;;2.70;1.10;;;13.60;99.90;;;13.17;100.00;97574.09;5001048;28;20087;-44
2022/10/25 09:32:41;;;;;;;4.35;1.33;;;13.60;99.90;;;13.27;100.00;97575.41;5001981;28;20033;-47
2022/10/25 09:35:28;;;;;;;2.63;0.95;;;13.70;99.90;;;13.31;100.00;97563.78;5015602;28;20188;-46
2022/10/25 09:38:12;;;;;;;2.65;1.08;;;13.80;99.90;;;13.35;100.00;97568.03;5001727;28;20033;-46
2022/10/25 09:40:46;;;;;;;6.78;1.25;;;13.90;99.90;;;13.38;100.00;97569.66;5021020;28;20029;-46
2022/10/25 09:43:17;;;;;;;5.80;1.38;;;13.90;99.90;;;13.45;100.00;97570.25;5001286;28;20049;-47
2022/10/25 09:45:49;;;;;;;3.08;1.30;;;13.90;99.90;;;13.51;100.00;97581.44;5002318;28;20086;-45
2022/10/25 09:48:31;;;;;;;2.43;1.03;;;14.00;99.90;;;13.57;100.00;97577.66;4999498;28;20620;-47
2022/10/25 09:51:18;;;;;;;2.78;1.25;;;14.10;99.90;;;13.60;100.00;97566.03;5015813;28;20315;-47
2022/10/25 09:53:45;;;;;;;4.95;1.17;;;14.10;99.90;;;13.67;100.00;97573.63;5004977;28;20109;-47
2022/10/25 09:56:11;;;;;;;3.22;1.33;;;14.10;99.90;;;13.69;100.00;97578.84;5018376;28;20028;-47
2022/10/25 09:58:40;;;;;;;4.72;1.40;;;14.20;99.90;;;13.76;100.00;97588.22;5000825;28;20332;-46
2022/10/25 10:01:19;;;;;;;4.97;1.25;;;14.20;99.90;;;13.78;100.00;97581.06;5016459;28;20040;-45
2022/10/25 10:03:45;;;;;;;7.03;1.33;;;14.20;99.90;;;13.80;100.00;97583.66;5000445;28;20125;-47
2022/10/25 10:06:23;;;;;;;3.58;1.20;;;14.20;99.90;;;13.80;100.00;97573.94;5018114;28;20037;-47
2022/10/25 10:08:57;;;;;;;4.78;1.15;;;14.20;99.90;;;13.76;100.00;97574.97;5000921;28;20033;-45
2022/10/25 10:11:24;;;;;;;3.45;0.95;;;14.20;99.90;;;13.78;100.00;97583.72;5000398;28;20111;-47
2022/10/25 10:13:56;;;;;;;3.40;1.05;;;14.20;99.90;;;13.83;100.00;97580.88;5000756;28;20025;-45
2022/10/25 10:16:43;;;;;;;6.10;1.58;;;14.20;99.90;;;13.83;100.00;97580.88;4997200;28;20443;-46
2022/10/25 10:19:17;;;;;;;3.60;0.80;;;14.30;99.90;;;13.85;100.00;97585.16;4998589;28;20060;-47
2022/10/25 10:22:07;;;;;;;5.40;1.27;;;14.30;99.90;;;13.91;100.00;97578.72;5016609;28;20033;-46
2022/10/25 10:24:43;;;;;;;3.90;0.90;;;14.40;99.90;;;14.02;100.00;97576.41;5007998;28;20046;-43
2022/10/25 10:27:25;;;;;;;1.50;0.70;;;14.40;99.90;;;14.04;100.00;97577.19;5016494;28;20059;-46
2022/10/25 10:29:57;;;;;;;4.13;1.30;;;14.50;99.90;;;14.10;100.00;97576.91;4999551;28;20076;-43
2022/10/25 10:32:33;;;;;;;5.15;1.70;;;14.60;99.90;;;14.14;100.00;97577.63;5016123;28;20029;-46
2022/10/25 10:35:01;;;;;;;5.57;1.40;;;14.60;99.90;;;14.18;100.00;97567.72;4998606;28;20030;-47
2022/10/25 10:37:29;;;;;;;5.13;1.55;;;14.70;99.90;;;14.20;100.00;97572.00;5016750;28;20414;-47